createdAt,value
2016-07-24T00:00:05.532Z,22.44
2016-07-24T00:01:05.523Z,22.46
2016-07-24T00:02:05.509Z,22.52
2016-07-24T00:03:05.488Z,22.52
2016-07-24T00:04:05.463Z,22.49
2016-07-24T00:05:05.446Z,22.6
2016-07-24T00:06:05.441Z,22.45
2016-07-24T00:07:04.712Z,22.51
2016-07-24T00:08:04.713Z,22.31
2016-07-24T00:09:05.389Z,22.35
2016-07-24T00:10:05.376Z,22.52
2016-07-24T00:11:05.359Z,22.52
2016-07-24T00:12:05.339Z,22.45
2016-07-24T00:13:05.345Z,22.57
2016-07-24T00:14:05.318Z,22.61
2016-07-24T00:15:05.298Z,22.67
2016-07-24T00:16:05.291Z,22.61
2016-07-24T00:17:05.270Z,22.61
2016-07-24T00:18:05.254Z,22.56
2016-07-24T00:19:05.235Z,22.59
2016-07-24T00:20:05.234Z,22.57
2016-07-24T00:21:05.204Z,22.57
2016-07-24T00:22:05.196Z,22.49
2016-07-24T00:23:05.172Z,22.46
2016-07-24T00:24:05.163Z,22.59
2016-07-24T00:25:05.146Z,22.52
2016-07-24T00:26:05.135Z,22.44
2016-07-24T00:27:05.111Z,22.54
2016-07-24T00:28:05.107Z,22.38
2016-07-24T00:29:05.082Z,22.31
2016-07-24T00:30:05.074Z,22.26
2016-07-24T00:31:05.054Z,22.3
2016-07-24T00:32:05.041Z,22.42
2016-07-24T00:33:05.023Z,22.42
2016-07-24T00:34:05.016Z,22.42
2016-07-24T00:35:04.987Z,22.46
2016-07-24T00:36:04.973Z,22.49
2016-07-24T00:37:04.958Z,22.46
2016-07-24T00:38:04.948Z,22.36
2016-07-24T00:39:04.247Z,22.26
2016-07-24T00:40:04.919Z,22.09
2016-07-24T00:41:04.897Z,22.01
2016-07-24T00:42:04.890Z,21.85
2016-07-24T00:43:04.866Z,21.89
2016-07-24T00:44:04.147Z,21.82
2016-07-24T00:45:04.842Z,21.81
2016-07-24T00:46:04.821Z,22.01
2016-07-24T00:47:04.811Z,22.11
2016-07-24T00:48:04.788Z,22.24
2016-07-24T00:49:04.780Z,22.04
2016-07-24T00:50:04.774Z,21.85
2016-07-24T00:51:04.749Z,21.82
2016-07-24T00:52:04.729Z,21.68
2016-07-24T00:53:04.725Z,21.7
2016-07-24T00:54:04.699Z,21.66
2016-07-24T00:55:03.983Z,21.71
2016-07-24T00:56:04.666Z,21.51
2016-07-24T00:57:04.657Z,21.36
2016-07-24T00:58:04.640Z,21.26
2016-07-24T00:59:04.624Z,21.28
2016-07-24T01:00:04.615Z,21.21
2016-07-24T01:01:04.596Z,21.34
2016-07-24T01:02:04.579Z,21.31
2016-07-24T01:03:04.568Z,21.22
2016-07-24T01:04:04.553Z,21.19
2016-07-24T01:05:04.534Z,21.34
2016-07-24T01:06:04.535Z,21.36
2016-07-24T01:07:04.489Z,21.43
2016-07-24T01:08:04.487Z,21.53
2016-07-24T01:09:04.473Z,21.52
2016-07-24T01:10:03.752Z,21.45
2016-07-24T01:11:04.445Z,21.52
2016-07-24T01:12:04.424Z,21.49
2016-07-24T01:13:04.413Z,21.38
2016-07-24T01:14:04.391Z,21.24
2016-07-24T01:15:04.382Z,21.13
2016-07-24T01:16:04.372Z,21.28
2016-07-24T01:17:04.338Z,21.28
2016-07-24T01:18:04.336Z,21.38
2016-07-24T01:19:04.321Z,21.26
2016-07-24T01:20:04.306Z,21.27
2016-07-24T01:21:04.281Z,21.36
2016-07-24T01:22:04.275Z,21.31
2016-07-24T01:23:04.252Z,21.12
2016-07-24T01:24:04.232Z,21.05
2016-07-24T01:25:04.222Z,21.15
2016-07-24T01:26:04.208Z,21.15
2016-07-24T01:27:04.192Z,21.18
2016-07-24T01:28:03.466Z,21.24
2016-07-24T01:29:04.173Z,21.34
2016-07-24T01:30:04.141Z,21.46
2016-07-24T01:31:04.127Z,21.56
2016-07-24T01:32:04.119Z,21.55
2016-07-24T01:33:03.388Z,21.68
2016-07-24T01:34:04.090Z,21.67
2016-07-24T01:35:04.072Z,21.68
2016-07-24T01:36:04.047Z,21.73
2016-07-24T01:37:04.037Z,21.68
2016-07-24T01:38:04.018Z,21.82
2016-07-24T01:39:03.298Z,21.75
2016-07-24T01:40:03.282Z,21.75
2016-07-24T01:41:03.978Z,21.71
2016-07-24T01:42:03.249Z,21.96
2016-07-24T01:43:03.947Z,21.86
2016-07-24T01:44:03.929Z,22.01
2016-07-24T01:45:03.908Z,21.94
2016-07-24T01:46:03.899Z,21.75
2016-07-24T01:47:03.884Z,21.75
2016-07-24T01:48:03.858Z,21.86
2016-07-24T01:49:03.851Z,21.99
2016-07-24T01:50:03.829Z,21.94
2016-07-24T01:51:03.821Z,21.9
2016-07-24T01:52:03.099Z,22.01
2016-07-24T01:53:02.369Z,21.9
2016-07-24T01:54:03.764Z,21.89
2016-07-24T01:55:03.755Z,21.89
2016-07-24T01:56:03.740Z,21.79
2016-07-24T01:57:03.717Z,21.82
2016-07-24T01:58:03.699Z,21.86
2016-07-24T01:59:03.693Z,21.94
2016-07-24T02:00:03.670Z,21.96
2016-07-24T02:01:02.949Z,21.85
2016-07-24T02:02:03.641Z,21.86
2016-07-24T02:03:03.651Z,21.82
2016-07-24T02:04:03.607Z,21.75
2016-07-24T02:05:02.885Z,21.55
2016-07-24T02:06:02.876Z,21.52
2016-07-24T02:07:03.576Z,21.66
2016-07-24T02:08:03.554Z,21.55
2016-07-24T02:09:03.537Z,21.52
2016-07-24T02:10:03.514Z,21.52
2016-07-24T02:11:03.503Z,21.53
2016-07-24T02:12:02.778Z,21.55
2016-07-24T02:13:03.474Z,21.42
2016-07-24T02:14:03.469Z,21.4
2016-07-24T02:15:03.450Z,21.4
2016-07-24T02:16:03.427Z,21.27
2016-07-24T02:17:03.422Z,21.27
2016-07-24T02:18:03.400Z,21.21
2016-07-24T02:19:03.379Z,21.13
2016-07-24T02:20:03.361Z,20.98
2016-07-24T02:21:03.351Z,21.03
2016-07-24T02:22:03.328Z,21.05
2016-07-24T02:23:03.316Z,21.06
2016-07-24T02:24:03.309Z,21.06
2016-07-24T02:25:03.284Z,20.88
2016-07-24T02:26:03.271Z,21.19
2016-07-24T02:27:03.271Z,21.27
2016-07-24T02:28:02.582Z,21.26
2016-07-24T02:29:03.225Z,21.48
2016-07-24T02:30:03.199Z,21.58
2016-07-24T02:31:02.482Z,21.66
2016-07-24T02:32:03.185Z,21.7
2016-07-24T02:33:03.164Z,21.74
2016-07-24T02:34:02.439Z,21.74
2016-07-24T02:35:03.133Z,21.7
2016-07-24T02:36:03.115Z,21.7
2016-07-24T02:37:03.099Z,21.71
2016-07-24T02:38:03.086Z,21.68
2016-07-24T02:39:03.069Z,21.77
2016-07-24T02:40:02.344Z,21.77
2016-07-24T02:41:03.037Z,21.79
2016-07-24T02:42:03.015Z,21.86
2016-07-24T02:43:01.580Z,21.82
2016-07-24T02:44:02.984Z,21.73
2016-07-24T02:45:02.972Z,21.81
2016-07-24T02:46:02.954Z,21.71
2016-07-24T02:47:02.935Z,21.71
2016-07-24T02:48:02.924Z,21.77
2016-07-24T02:49:02.909Z,21.9
2016-07-24T02:50:02.181Z,21.85
2016-07-24T02:51:02.883Z,21.89
2016-07-24T02:52:02.865Z,21.79
2016-07-24T02:53:02.850Z,21.75
2016-07-24T02:54:02.819Z,21.73
2016-07-24T02:55:02.095Z,21.74
2016-07-24T02:56:02.086Z,21.73
2016-07-24T02:57:02.778Z,21.75
2016-07-24T02:58:02.054Z,21.75
2016-07-24T02:59:02.745Z,21.75
2016-07-24T03:00:02.734Z,21.77
2016-07-24T03:01:02.716Z,21.75
2016-07-24T03:02:02.709Z,21.75
2016-07-24T03:03:02.693Z,21.77
2016-07-24T03:04:02.669Z,21.56
2016-07-24T03:05:02.660Z,21.58
2016-07-24T03:06:02.643Z,21.43
2016-07-24T03:07:02.623Z,21.34
2016-07-24T03:08:02.616Z,21.19
2016-07-24T03:09:02.595Z,21.21
2016-07-24T03:10:02.574Z,21.37
2016-07-24T03:11:02.566Z,21.59
2016-07-24T03:12:02.546Z,21.63
2016-07-24T03:13:01.817Z,21.7
2016-07-24T03:14:02.516Z,21.75
2016-07-24T03:15:02.492Z,21.74
2016-07-24T03:16:02.481Z,21.73
2016-07-24T03:17:01.752Z,21.77
2016-07-24T03:18:02.447Z,21.82
2016-07-24T03:19:02.434Z,21.63
2016-07-24T03:20:02.412Z,21.66
2016-07-24T03:21:02.412Z,21.51
2016-07-24T03:22:02.623Z,21.55
2016-07-24T03:23:02.376Z,21.66
2016-07-24T03:24:02.378Z,21.67
2016-07-24T03:25:01.635Z,21.63
2016-07-24T03:26:02.325Z,21.67
2016-07-24T03:27:02.311Z,21.67
2016-07-24T03:28:01.595Z,21.66
2016-07-24T03:29:02.276Z,21.52
2016-07-24T03:30:02.261Z,21.34
2016-07-24T03:31:02.243Z,21.18
2016-07-24T03:32:02.240Z,21.08
2016-07-24T03:33:02.211Z,20.98
2016-07-24T03:34:02.211Z,21
2016-07-24T03:35:02.184Z,21.06
2016-07-24T03:36:02.162Z,21.15
2016-07-24T03:37:02.177Z,21.13
2016-07-24T03:38:02.141Z,21.11
2016-07-24T03:39:02.118Z,21.3
2016-07-24T03:40:02.113Z,21.24
2016-07-24T03:41:02.091Z,21.31
2016-07-24T03:42:02.070Z,21.36
2016-07-24T03:43:02.063Z,21.58
2016-07-24T03:44:02.037Z,21.49
2016-07-24T03:45:02.023Z,21.49
2016-07-24T03:46:01.292Z,21.48
2016-07-24T03:47:01.992Z,21.53
2016-07-24T03:48:01.974Z,21.43
2016-07-24T03:49:01.967Z,21.3
2016-07-24T03:50:01.948Z,21.21
2016-07-24T03:51:01.925Z,21.19
2016-07-24T03:52:01.918Z,21.24
2016-07-24T03:53:01.900Z,21.19
2016-07-24T03:54:01.895Z,21.16
2016-07-24T03:55:01.162Z,21.21
2016-07-24T03:56:01.856Z,21.26
2016-07-24T03:57:01.833Z,21.26
2016-07-24T03:58:01.817Z,21.27
2016-07-24T03:59:01.812Z,21.28
2016-07-24T04:00:01.794Z,21.26
2016-07-24T04:01:01.783Z,21.28
2016-07-24T04:02:01.762Z,21.45
2016-07-24T04:03:01.742Z,21.4
2016-07-24T04:04:01.020Z,21.06
2016-07-24T04:05:00.998Z,20.91
2016-07-24T04:06:00.981Z,20.85
2016-07-24T04:07:01.670Z,20.66
2016-07-24T04:08:01.665Z,20.6
2016-07-24T04:09:01.641Z,20.54
2016-07-24T04:10:01.631Z,20.61
2016-07-24T04:11:01.627Z,20.6
2016-07-24T04:12:00.886Z,20.63
2016-07-24T04:13:01.588Z,20.68
2016-07-24T04:14:01.567Z,20.71
2016-07-24T04:15:00.842Z,20.73
2016-07-24T04:16:00.825Z,20.81
2016-07-24T04:17:01.524Z,20.82
2016-07-24T04:18:01.497Z,20.82
2016-07-24T04:19:01.491Z,20.81
2016-07-24T04:20:01.473Z,20.83
2016-07-24T04:21:00.744Z,20.72
2016-07-24T04:22:01.442Z,20.81
2016-07-24T04:23:01.428Z,20.72
2016-07-24T04:24:01.403Z,20.66
2016-07-24T04:25:01.396Z,20.56
2016-07-24T04:26:01.381Z,20.56
2016-07-24T04:27:01.362Z,20.56
2016-07-24T04:28:01.346Z,20.61
2016-07-24T04:29:01.325Z,20.68
2016-07-24T04:30:01.311Z,20.68
2016-07-24T04:31:01.298Z,20.71
2016-07-24T04:32:01.288Z,20.79
2016-07-24T04:33:01.261Z,20.75
2016-07-24T04:34:01.251Z,20.73
2016-07-24T04:35:01.221Z,20.71
2016-07-24T04:36:01.225Z,20.76
2016-07-24T04:37:01.199Z,20.66
2016-07-24T04:38:01.189Z,20.58
2016-07-24T04:39:01.167Z,20.6
2016-07-24T04:40:01.166Z,20.53
2016-07-24T04:41:01.126Z,20.46
2016-07-24T04:42:01.125Z,20.44
2016-07-24T04:43:01.104Z,20.53
2016-07-24T04:44:01.086Z,20.51
2016-07-24T04:45:01.067Z,20.56
2016-07-24T04:46:01.058Z,20.72
2016-07-24T04:47:01.039Z,20.76
2016-07-24T04:48:01.021Z,20.96
2016-07-24T04:49:01.008Z,21.01
2016-07-24T04:50:00.996Z,21.12
2016-07-24T04:51:00.974Z,21.11
2016-07-24T04:52:00.959Z,21.18
2016-07-24T04:53:00.936Z,21.18
2016-07-24T04:54:00.927Z,21.08
2016-07-24T04:55:00.912Z,21.12
2016-07-24T04:56:00.890Z,21.08
2016-07-24T04:57:00.884Z,21.08
2016-07-24T04:58:00.162Z,21.12
2016-07-24T04:59:00.136Z,21.18
2016-07-24T05:00:00.824Z,21.16
2016-07-24T05:01:00.820Z,21.28
2016-07-24T05:02:00.801Z,21.27
2016-07-24T05:03:00.778Z,21.33
2016-07-24T05:04:00.056Z,21.36
2016-07-24T05:05:00.747Z,21.34
2016-07-24T05:06:00.747Z,21.37
2016-07-24T05:07:00.714Z,21.4
2016-07-24T05:08:00.697Z,21.19
2016-07-24T05:09:00.688Z,21.3
2016-07-24T05:10:00.658Z,21.27
2016-07-24T05:11:00.654Z,21.01
2016-07-24T05:11:59.214Z,20.98
2016-07-24T05:13:00.641Z,21.06
2016-07-24T05:14:00.608Z,21.01
2016-07-24T05:15:00.589Z,20.97
2016-07-24T05:15:59.863Z,20.83
2016-07-24T05:17:00.556Z,20.83
2016-07-24T05:18:00.548Z,20.83
2016-07-24T05:19:00.523Z,20.87
2016-07-24T05:20:00.502Z,20.87
2016-07-24T05:21:00.487Z,20.78
2016-07-24T05:22:00.484Z,20.72
2016-07-24T05:23:00.459Z,20.79
2016-07-24T05:24:00.450Z,20.75
2016-07-24T05:25:00.421Z,20.83
2016-07-24T05:26:00.409Z,20.91
2016-07-24T05:27:00.404Z,20.88
2016-07-24T05:28:00.387Z,20.97
2016-07-24T05:29:00.359Z,20.96
2016-07-24T05:29:59.638Z,20.94
2016-07-24T05:31:00.333Z,20.87
2016-07-24T05:32:00.324Z,20.88
2016-07-24T05:33:00.293Z,20.98
2016-07-24T05:34:00.291Z,20.94
2016-07-24T05:35:00.272Z,20.97
2016-07-24T05:36:00.255Z,21.09
2016-07-24T05:37:00.230Z,21.18
2016-07-24T05:38:00.218Z,21.09
2016-07-24T05:39:00.205Z,21.18
2016-07-24T05:40:00.209Z,21.31
2016-07-24T05:41:00.177Z,21.42
2016-07-24T05:42:00.154Z,21.49
2016-07-24T05:43:00.143Z,21.22
2016-07-24T05:44:00.121Z,21.22
2016-07-24T05:45:00.108Z,21.28
2016-07-24T05:46:00.089Z,21.31
2016-07-24T05:47:00.077Z,21.36
2016-07-24T05:48:00.052Z,21.52
2016-07-24T05:49:00.037Z,21.59
2016-07-24T05:50:00.027Z,21.68
2016-07-24T05:51:00.012Z,21.66
2016-07-24T05:51:59.995Z,21.73
2016-07-24T05:52:59.259Z,21.85
2016-07-24T05:53:59.988Z,21.93
2016-07-24T05:54:59.951Z,22.08
2016-07-24T05:55:59.229Z,22.14
2016-07-24T05:56:59.911Z,22.27
2016-07-24T05:57:59.190Z,22.15
2016-07-24T05:58:59.885Z,22.17
2016-07-24T05:59:59.866Z,22.27
2016-07-24T06:00:59.851Z,22.33
2016-07-24T06:01:59.841Z,22.31
2016-07-24T06:02:59.812Z,22.52
2016-07-24T06:03:59.799Z,22.45
2016-07-24T06:04:59.784Z,22.52
2016-07-24T06:05:59.065Z,22.54
2016-07-24T06:06:59.754Z,22.46
2016-07-24T06:07:59.751Z,22.48
2016-07-24T06:08:59.719Z,22.49
2016-07-24T06:09:59.710Z,22.6
2016-07-24T06:10:59.697Z,22.66
2016-07-24T06:11:59.675Z,22.6
2016-07-24T06:12:59.658Z,22.49
2016-07-24T06:13:59.644Z,22.31
2016-07-24T06:14:59.631Z,22.33
2016-07-24T06:15:59.611Z,22.33
2016-07-24T06:16:58.883Z,22.35
2016-07-24T06:17:59.592Z,22.35
2016-07-24T06:18:59.561Z,22.33
2016-07-24T06:19:59.558Z,22.52
2016-07-24T06:20:58.823Z,22.38
2016-07-24T06:21:59.549Z,22.3
2016-07-24T06:22:59.504Z,22.35
2016-07-24T06:23:59.489Z,22.48
2016-07-24T06:24:59.465Z,22.45
2016-07-24T06:25:59.457Z,22.57
2016-07-24T06:26:59.437Z,22.64
2016-07-24T06:27:59.426Z,22.72
2016-07-24T06:28:59.407Z,22.67
2016-07-24T06:29:59.389Z,22.72
2016-07-24T06:30:58.665Z,22.81
2016-07-24T06:31:59.369Z,22.84
2016-07-24T06:32:59.343Z,22.84
2016-07-24T06:33:59.333Z,22.89
2016-07-24T06:34:58.600Z,22.86
2016-07-24T06:35:59.292Z,22.99
2016-07-24T06:36:59.281Z,23.01
2016-07-24T06:37:59.259Z,23
2016-07-24T06:38:59.246Z,23.01
2016-07-24T06:39:59.239Z,23.01
2016-07-24T06:40:59.216Z,23.01
2016-07-24T06:41:59.209Z,23.16
2016-07-24T06:42:59.187Z,23.14
2016-07-24T06:43:59.179Z,23.07
2016-07-24T06:44:59.154Z,23.14
2016-07-24T06:45:59.144Z,23.14
2016-07-24T06:46:59.135Z,23.12
2016-07-24T06:47:59.110Z,23.16
2016-07-24T06:48:59.096Z,23.18
2016-07-24T06:49:59.079Z,23.21
2016-07-24T06:50:59.066Z,23.29
2016-07-24T06:51:59.051Z,23.21
2016-07-24T06:52:59.049Z,23.29
2016-07-24T06:53:59.019Z,23.22
2016-07-24T06:54:58.289Z,23.26
2016-07-24T06:55:58.992Z,23.29
2016-07-24T06:56:58.268Z,23.34
2016-07-24T06:57:58.967Z,23.35
2016-07-24T06:58:58.952Z,23.34
2016-07-24T06:59:58.918Z,23.31
2016-07-24T07:00:58.210Z,23.18
2016-07-24T07:01:58.182Z,23.14
2016-07-24T07:02:58.880Z,23.09
2016-07-24T07:03:58.158Z,23.18
2016-07-24T07:04:58.858Z,23.16
2016-07-24T07:05:58.837Z,23.18
2016-07-24T07:06:58.831Z,23.14
2016-07-24T07:07:58.809Z,23.12
2016-07-24T07:08:58.789Z,23.12
2016-07-24T07:09:58.773Z,23.11
2016-07-24T07:10:58.761Z,23.07
2016-07-24T07:11:58.747Z,23.11
2016-07-24T07:12:58.736Z,23.12
2016-07-24T07:13:58.717Z,23.06
2016-07-24T07:14:58.701Z,23.11
2016-07-24T07:15:58.680Z,23.12
2016-07-24T07:16:58.675Z,23.09
2016-07-24T07:17:58.650Z,23.09
2016-07-24T07:18:58.650Z,23.11
2016-07-24T07:19:57.914Z,23.12
2016-07-24T07:20:58.618Z,23.14
2016-07-24T07:21:58.593Z,23.12
2016-07-24T07:22:58.585Z,23.16
2016-07-24T07:23:58.560Z,23.15
2016-07-24T07:24:58.546Z,23.16
2016-07-24T07:25:58.544Z,23.19
2016-07-24T07:26:58.512Z,23.29
2016-07-24T07:27:57.789Z,23.23
2016-07-24T07:28:57.790Z,23.29
2016-07-24T07:29:58.481Z,23.34
2016-07-24T07:30:58.459Z,23.45
2016-07-24T07:31:58.448Z,23.5
2016-07-24T07:32:58.423Z,23.54
2016-07-24T07:33:58.428Z,23.57
2016-07-24T07:34:58.409Z,23.53
2016-07-24T07:35:58.379Z,23.57
2016-07-24T07:36:58.368Z,23.68
2016-07-24T07:37:58.357Z,23.67
2016-07-24T07:38:58.335Z,23.49
2016-07-24T07:39:58.330Z,23.59
2016-07-24T07:40:57.596Z,23.44
2016-07-24T07:41:58.285Z,23.44
2016-07-24T07:42:58.277Z,23.45
2016-07-24T07:43:58.253Z,23.52
2016-07-24T07:44:58.244Z,23.5
2016-07-24T07:45:58.233Z,23.47
2016-07-24T07:46:58.214Z,23.41
2016-07-24T07:47:57.497Z,23.54
2016-07-24T07:48:58.184Z,23.54
2016-07-24T07:49:58.170Z,23.68
2016-07-24T07:50:58.148Z,23.57
2016-07-24T07:51:57.432Z,23.54
2016-07-24T07:52:58.119Z,23.63
2016-07-24T07:53:58.112Z,23.54
2016-07-24T07:54:58.094Z,23.57
2016-07-24T07:55:58.077Z,23.5
2016-07-24T07:56:58.058Z,23.6
2016-07-24T07:57:58.048Z,23.59
2016-07-24T07:58:58.044Z,23.54
2016-07-24T07:59:58.021Z,23.62
2016-07-24T08:00:58.010Z,23.62
2016-07-24T08:01:57.992Z,23.6
2016-07-24T08:02:57.974Z,23.6
2016-07-24T08:03:57.965Z,23.64
2016-07-24T08:04:57.955Z,23.57
2016-07-24T08:05:57.925Z,23.75
2016-07-24T08:06:57.914Z,23.74
2016-07-24T08:07:57.900Z,23.79
2016-07-24T08:08:57.885Z,23.81
2016-07-24T08:09:57.868Z,23.87
2016-07-24T08:10:57.849Z,23.9
2016-07-24T08:11:57.845Z,23.89
2016-07-24T08:12:57.821Z,23.96
2016-07-24T08:13:57.809Z,23.97
2016-07-24T08:14:57.794Z,23.9
2016-07-24T08:15:57.791Z,23.87
2016-07-24T08:16:57.761Z,23.9
2016-07-24T08:17:57.742Z,23.92
2016-07-24T08:18:57.026Z,23.78
2016-07-24T08:19:57.020Z,23.81
2016-07-24T08:20:57.703Z,23.78
2016-07-24T08:21:57.690Z,23.74
2016-07-24T08:22:57.673Z,23.87
2016-07-24T08:23:57.656Z,23.87
2016-07-24T08:24:57.652Z,23.79
2016-07-24T08:25:56.940Z,23.87
2016-07-24T08:26:57.626Z,23.78
2016-07-24T08:27:57.593Z,23.79
2016-07-24T08:28:57.591Z,23.84
2016-07-24T08:29:57.579Z,23.81
2016-07-24T08:30:57.561Z,23.81
2016-07-24T08:31:57.539Z,23.79
2016-07-24T08:32:57.531Z,23.81
2016-07-24T08:33:57.522Z,23.77
2016-07-24T08:34:57.499Z,23.81
2016-07-24T08:35:57.482Z,23.9
2016-07-24T08:36:57.455Z,23.87
2016-07-24T08:37:56.750Z,23.99
2016-07-24T08:38:57.441Z,23.9
2016-07-24T08:39:57.425Z,24.06
2016-07-24T08:40:57.415Z,24.09
2016-07-24T08:41:57.407Z,24.14
2016-07-24T08:42:57.375Z,24.11
2016-07-24T08:43:57.362Z,24.14
2016-07-24T08:44:57.346Z,24.11
2016-07-24T08:45:57.335Z,24.14
2016-07-24T08:46:57.320Z,24
2016-07-24T08:47:57.308Z,24.08
2016-07-24T08:48:57.296Z,24.06
2016-07-24T08:49:57.277Z,24.14
2016-07-24T08:50:57.252Z,24.14
2016-07-24T08:51:57.248Z,24.08
2016-07-24T08:52:57.238Z,24.04
2016-07-24T08:53:57.217Z,24.06
2016-07-24T08:54:57.206Z,24.06
2016-07-24T08:55:57.194Z,24.05
2016-07-24T08:56:57.176Z,24.06
2016-07-24T08:57:57.159Z,24.18
2016-07-24T08:58:57.151Z,24.16
2016-07-24T08:59:57.128Z,24.15
2016-07-24T09:00:57.116Z,24.21
2016-07-24T09:01:57.105Z,24.19
2016-07-24T09:02:57.093Z,24.23
2016-07-24T09:03:57.068Z,24.15
2016-07-24T09:04:57.063Z,24.18
2016-07-24T09:05:57.043Z,24.23
2016-07-24T09:06:57.031Z,24.24
2016-07-24T09:07:57.013Z,24.12
2016-07-24T09:08:56.997Z,24.27
2016-07-24T09:09:56.983Z,24.14
2016-07-24T09:10:56.978Z,24.15
2016-07-24T09:12:56.933Z,24.15
2016-07-24T09:13:56.922Z,24.15
2016-07-24T09:14:56.911Z,24.14
2016-07-24T09:15:56.897Z,24.12
2016-07-24T09:16:56.883Z,24.23
2016-07-24T09:17:56.873Z,24.14
2016-07-24T09:18:56.860Z,24.16
2016-07-24T09:19:56.847Z,24.24
2016-07-24T09:20:56.836Z,24.19
2016-07-24T09:21:56.095Z,24.24
2016-07-24T09:22:56.790Z,24.24
2016-07-24T09:23:56.783Z,24.23
2016-07-24T09:24:55.343Z,24.21
2016-07-24T09:25:56.745Z,24.26
2016-07-24T09:26:56.026Z,24.26
2016-07-24T09:27:56.716Z,24.34
2016-07-24T09:28:57.064Z,24.39
2016-07-24T09:29:56.693Z,24.39
2016-07-24T09:30:56.679Z,24.37
2016-07-24T09:31:56.679Z,24.44
2016-07-24T09:32:56.657Z,24.33
2016-07-24T09:33:56.647Z,24.36
2016-07-24T09:34:56.619Z,24.36
2016-07-24T09:35:56.614Z,24.37
2016-07-24T09:36:56.605Z,24.3
2016-07-24T09:37:56.593Z,24.34
2016-07-24T09:38:56.558Z,24.34
2016-07-24T09:39:56.540Z,24.41
2016-07-24T09:40:55.827Z,24.24
2016-07-24T09:41:56.520Z,24.31
2016-07-24T09:42:56.500Z,24.26
2016-07-24T09:43:56.490Z,24.33
2016-07-24T09:44:56.469Z,24.36
2016-07-24T09:45:56.451Z,24.31
2016-07-24T09:46:56.443Z,24.39
2016-07-24T09:47:56.427Z,24.34
2016-07-24T09:48:56.417Z,24.39
2016-07-24T09:49:56.401Z,24.37
2016-07-24T09:50:56.382Z,24.42
2016-07-24T09:51:56.381Z,24.42
2016-07-24T09:52:56.347Z,24.36
2016-07-24T09:53:56.346Z,24.44
2016-07-24T09:54:55.620Z,24.34
2016-07-24T09:55:56.319Z,24.34
2016-07-24T09:56:56.295Z,24.44
2016-07-24T09:57:55.586Z,24.41
2016-07-24T09:58:56.275Z,24.39
2016-07-24T09:59:56.258Z,24.41
2016-07-24T10:00:56.245Z,24.48
2016-07-24T10:01:56.228Z,24.36
2016-07-24T10:02:56.216Z,24.37
2016-07-24T10:03:56.198Z,24.41
2016-07-24T10:04:56.196Z,24.37
2016-07-24T10:05:56.167Z,24.39
2016-07-24T10:06:56.153Z,24.42
2016-07-24T10:07:56.162Z,24.39
2016-07-24T10:08:56.349Z,24.36
2016-07-24T10:09:56.123Z,24.45
2016-07-24T10:10:56.102Z,24.41
2016-07-24T10:11:56.087Z,24.48
2016-07-24T10:12:55.363Z,24.37
2016-07-24T10:13:56.054Z,24.45
2016-07-24T10:14:56.047Z,24.41
2016-07-24T10:15:56.028Z,24.37
2016-07-24T10:16:56.011Z,24.39
2016-07-24T10:17:55.998Z,24.39
2016-07-24T10:18:55.987Z,24.36
2016-07-24T10:19:55.968Z,24.34
2016-07-24T10:20:55.956Z,24.41
2016-07-24T10:21:55.948Z,24.37
2016-07-24T10:22:55.936Z,24.41
2016-07-24T10:23:55.908Z,24.41
2016-07-24T10:24:55.894Z,24.41
2016-07-24T10:25:55.885Z,24.37
2016-07-24T10:26:55.155Z,24.39
2016-07-24T10:27:55.854Z,24.37
2016-07-24T10:28:55.843Z,24.37
2016-07-24T10:29:55.832Z,24.42
2016-07-24T10:30:55.822Z,24.42
2016-07-24T10:31:55.793Z,24.45
2016-07-24T10:32:55.785Z,24.42
2016-07-24T10:33:55.771Z,24.39
2016-07-24T10:34:55.753Z,24.44
2016-07-24T10:35:55.732Z,24.49
2016-07-24T10:36:55.729Z,24.48
2016-07-24T10:37:55.714Z,24.49
2016-07-24T10:38:55.697Z,24.46
2016-07-24T10:39:55.682Z,24.45
2016-07-24T10:40:55.675Z,24.45
2016-07-24T10:41:55.657Z,24.45
2016-07-24T10:42:55.630Z,24.46
2016-07-24T10:43:55.633Z,24.46
2016-07-24T10:44:55.606Z,24.44
2016-07-24T10:45:55.607Z,24.49
2016-07-24T10:46:55.597Z,24.45
2016-07-24T10:47:55.571Z,24.46
2016-07-24T10:48:55.549Z,24.42
2016-07-24T10:49:55.544Z,24.45
2016-07-24T10:50:55.522Z,24.44
2016-07-24T10:51:55.526Z,24.46
2016-07-24T10:52:55.498Z,24.44
2016-07-24T10:53:54.783Z,24.42
2016-07-24T10:54:55.465Z,24.44
2016-07-24T10:55:54.751Z,24.48
2016-07-24T10:56:55.447Z,24.46
2016-07-24T10:57:55.430Z,24.45
2016-07-24T10:58:55.418Z,24.44
2016-07-24T10:59:54.696Z,24.46
2016-07-24T11:00:55.382Z,24.46
2016-07-24T11:01:55.386Z,24.42
2016-07-24T11:02:55.358Z,24.44
2016-07-24T11:03:55.348Z,24.49
2016-07-24T11:04:55.333Z,24.49
2016-07-24T11:05:54.615Z,24.51
2016-07-24T11:06:54.595Z,24.46
2016-07-24T11:07:55.278Z,24.45
2016-07-24T11:08:54.569Z,24.53
2016-07-24T11:09:55.261Z,24.48
2016-07-24T11:10:55.255Z,24.59
2016-07-24T11:11:55.227Z,24.59
2016-07-24T11:12:55.214Z,24.6
2016-07-24T11:13:55.205Z,24.59
2016-07-24T11:14:55.192Z,24.55
2016-07-24T11:15:55.172Z,24.59
2016-07-24T11:16:55.151Z,24.6
2016-07-24T11:17:55.135Z,24.48
2016-07-24T11:18:55.127Z,24.64
2016-07-24T11:19:55.109Z,24.67
2016-07-24T11:20:55.098Z,24.61
2016-07-24T11:21:55.077Z,24.63
2016-07-24T11:22:55.067Z,24.66
2016-07-24T11:23:55.064Z,24.66
2016-07-24T11:24:55.046Z,24.68
2016-07-24T11:25:55.029Z,24.68
2016-07-24T11:26:55.020Z,24.6
2016-07-24T11:27:55.002Z,24.64
2016-07-24T11:28:54.987Z,24.67
2016-07-24T11:29:54.972Z,24.7
2016-07-24T11:30:54.958Z,24.68
2016-07-24T11:31:54.942Z,24.63
2016-07-24T11:32:54.928Z,24.63
2016-07-24T11:33:54.915Z,24.6
2016-07-24T11:34:54.895Z,24.75
2016-07-24T11:35:54.885Z,24.66
2016-07-24T11:36:54.877Z,24.7
2016-07-24T11:37:54.860Z,24.67
2016-07-24T11:38:54.842Z,24.75
2016-07-24T11:39:54.825Z,24.75
2016-07-24T11:40:54.815Z,24.79
2016-07-24T11:41:54.798Z,24.77
2016-07-24T11:42:54.076Z,24.77
2016-07-24T11:43:54.771Z,24.75
2016-07-24T11:44:54.756Z,24.8
2016-07-24T11:45:54.748Z,24.8
2016-07-24T11:46:54.729Z,24.7
2016-07-24T11:47:54.721Z,24.8
2016-07-24T11:48:54.704Z,24.82
2016-07-24T11:49:54.675Z,24.77
2016-07-24T11:50:54.682Z,24.75
2016-07-24T11:51:54.657Z,24.82
2016-07-24T11:52:54.631Z,24.83
2016-07-24T11:53:54.625Z,24.77
2016-07-24T11:54:54.620Z,24.8
2016-07-24T11:55:53.880Z,24.84
2016-07-24T11:56:54.584Z,24.87
2016-07-24T11:57:53.865Z,24.89
2016-07-24T11:58:54.558Z,24.83
2016-07-24T11:59:54.545Z,24.87
2016-07-24T12:00:54.534Z,24.71
2016-07-24T12:01:54.516Z,24.86
2016-07-24T12:02:54.508Z,24.77
2016-07-24T12:03:54.500Z,24.77
2016-07-24T12:04:53.768Z,24.89
2016-07-24T12:05:54.455Z,24.87
2016-07-24T12:06:53.738Z,24.84
2016-07-24T12:07:54.424Z,24.77
2016-07-24T12:08:54.415Z,24.83
2016-07-24T12:09:54.409Z,24.89
2016-07-24T12:10:54.395Z,24.8
2016-07-24T12:11:54.368Z,24.8
2016-07-24T12:12:54.368Z,24.84
2016-07-24T12:13:54.346Z,24.94
2016-07-24T12:14:54.343Z,24.92
2016-07-24T12:15:54.321Z,24.87
2016-07-24T12:16:54.305Z,24.79
2016-07-24T12:17:54.290Z,24.84
2016-07-24T12:18:54.270Z,24.93
2016-07-24T12:19:54.264Z,24.79
2016-07-24T12:20:54.250Z,24.84
2016-07-24T12:21:54.236Z,24.77
2016-07-24T12:22:54.215Z,24.98
2016-07-24T12:23:54.211Z,24.92
2016-07-24T12:24:54.195Z,24.86
2016-07-24T12:25:54.175Z,24.89
2016-07-24T12:26:54.160Z,24.9
2016-07-24T12:27:54.158Z,24.89
2016-07-24T12:28:54.188Z,24.92
2016-07-24T12:29:54.118Z,24.93
2016-07-24T12:30:54.108Z,24.98
2016-07-24T12:31:54.094Z,24.92
2016-07-24T12:32:54.084Z,24.97
2016-07-24T12:33:54.064Z,25.01
2016-07-24T12:34:54.054Z,25.01
2016-07-24T12:35:54.028Z,24.98
2016-07-24T12:36:54.021Z,24.99
2016-07-24T12:37:54.003Z,24.94
2016-07-24T12:38:53.998Z,25.01
2016-07-24T12:39:53.983Z,25.04
2016-07-24T12:40:53.969Z,25.02
2016-07-24T12:41:53.957Z,24.99
2016-07-24T12:42:53.925Z,25.01
2016-07-24T12:43:53.928Z,25.02
2016-07-24T12:44:53.912Z,25.05
2016-07-24T12:45:53.907Z,25.07
2016-07-24T12:46:53.898Z,25.05
2016-07-24T12:47:53.872Z,24.98
2016-07-24T12:48:53.852Z,25.05
2016-07-24T12:49:53.131Z,25.08
2016-07-24T12:50:53.114Z,24.98
2016-07-24T12:51:53.819Z,25.04
2016-07-24T12:52:53.801Z,25.05
2016-07-24T12:53:53.085Z,24.97
2016-07-24T12:54:53.778Z,24.99